Dillon, Illinois
Current Conditions -  °F | °C
As of 7:54 AM on Monday 20 Oct 2014 (Local Time) from KPIA Reporting Station
Clear Clear  
Wind Chill: 11°   Ceiling: Unl
Heat Index: 11°   Visibility: 10mi
Dew Point:   Wind: 5mph
Humidity: 80%   Direction: 280°W
Pressure: 29.9"   Gusts: NA
Location:  40.4817°N, 89.4923°W
Report Text: KPIA 201254Z 28004KT 10SM CLR 11/07 A2990 RMK AO2 SLP126 T01060072
Loading
Personal Weather Stations






























Interactive Weather Map
Tropical Storm Tracking
New forecast layout! Learn more

10-Day Weather Forecast

Advertisements
Track Severe Weather on mobile